Time;durP1;ratioP1;P1;durP2;ratioP2;P2;SDS_P1;SDS_P2;PMS_P1;PMS_P2;Temp;Humidity;BMP_temperature;BMP_pressure;BME280_temperature;BME280_humidity;BME280_pressure;Samples;Min_cycle;Max_cycle;Signal;HPM_P1;HPM_P2
2021/12/13 00:02:10;;;;;;;250.53;47.03;;;8.40;97.10;;;;;;5013696;28;20178;-91
2021/12/13 00:05:07;;;;;;;220.50;45.77;;;8.30;97.20;;;;;;5013190;28;20239;-92
2021/12/13 00:07:38;;;;;;;238.23;44.87;;;8.40;97.20;;;;;;5015275;28;20165;-91
2021/12/13 00:10:13;;;;;;;212.57;44.73;;;8.40;97.10;;;;;;5016772;28;20217;-91
2021/12/13 00:12:45;;;;;;;206.60;43.50;;;8.40;97.20;;;;;;5017765;28;20161;-92
2021/12/13 00:15:25;;;;;;;183.97;40.60;;;8.40;97.20;;;;;;5015385;28;20258;-92
2021/12/13 00:17:52;;;;;;;209.70;41.40;;;8.40;97.10;;;;;;5015150;28;20169;-92
2021/12/13 00:20:29;;;;;;;194.70;39.77;;;8.30;97.20;;;;;;5019324;28;20197;-92
2021/12/13 00:23:01;;;;;;;166.33;35.13;;;8.30;97.10;;;;;;5018237;28;20574;-92
2021/12/13 00:25:29;;;;;;;164.33;33.93;;;8.40;97.10;;;;;;5015220;28;20249;-93
2021/12/13 00:28:04;;;;;;;155.43;33.50;;;8.40;97.20;;;;;;5030296;28;20165;-92
2021/12/13 00:31:02;;;;;;;132.73;31.47;;;8.40;97.10;;;;;;5033013;28;20199;-92
2021/12/13 00:33:47;;;;;;;134.50;30.20;;;8.50;97.20;;;;;;5030030;28;20192;-92
2021/12/13 00:36:27;;;;;;;135.47;29.30;;;8.50;97.20;;;;;;5031411;28;20260;-92
2021/12/13 00:39:11;;;;;;;122.10;28.23;;;8.50;97.20;;;;;;5022503;28;20181;-92
2021/12/13 00:41:37;;;;;;;121.27;28.57;;;8.60;97.10;;;;;;5021413;28;20212;-92
2021/12/13 00:44:07;;;;;;;135.87;30.47;;;8.60;97.20;;;;;;5022690;28;20181;-92
2021/12/13 00:46:36;;;;;;;146.70;30.40;;;8.60;97.20;;;;;;5034515;28;20269;-92
2021/12/13 00:49:07;;;;;;;127.30;27.83;;;8.60;97.20;;;;;;5028943;28;20230;-92
2021/12/13 00:51:37;;;;;;;106.77;26.20;;;8.60;97.10;;;;;;5023175;28;20201;-92
2021/12/13 00:54:25;;;;;;;117.97;25.97;;;8.70;97.20;;;;;;5026567;28;20277;-92
2021/12/13 00:57:16;;;;;;;102.77;24.40;;;8.60;97.10;;;;;;5020863;28;20673;-92
2021/12/13 00:59:48;;;;;;;111.17;24.80;;;8.60;97.20;;;;;;5026682;28;20172;-93
2021/12/13 01:02:56;;;;;;;113.30;27.27;;;8.70;97.20;;;;;;5027618;28;20233;-92
2021/12/13 01:05:43;;;;;;;117.17;26.20;;;8.60;97.10;;;;;;5026588;28;20269;-93
2021/12/13 01:08:47;;;;;;;112.07;26.80;;;8.50;97.20;;;;;;5022188;28;20176;-91
2021/12/13 01:11:34;;;;;;;103.40;25.37;;;8.50;97.10;;;;;;5024254;28;20219;-91
2021/12/13 01:15:01;;;;;;;96.40;24.70;;;8.60;97.20;;;;;;5029914;28;20255;-92
2021/12/13 01:18:15;;;;;;;95.53;23.87;;;8.60;97.20;;;;;;5019080;28;20181;-92
2021/12/13 01:21:14;;;;;;;103.87;24.77;;;8.60;97.10;;;;;;5034247;28;20209;-92
2021/12/13 01:23:47;;;;;;;99.53;22.63;;;8.70;97.20;;;;;;5039856;28;20165;-91
2021/12/13 01:29:17;;;;;;;96.17;22.77;;;8.70;97.20;;;;;;5043666;28;20184;-92
2021/12/13 01:31:50;;;;;;;90.33;22.93;;;8.70;97.20;;;;;;5037614;28;20220;-92
2021/12/13 01:34:17;;;;;;;91.90;23.27;;;8.80;97.10;;;;;;5037611;28;20166;-92
2021/12/13 01:36:53;;;;;;;101.13;23.57;;;8.80;97.20;;;;;;5033158;28;20256;-93
2021/12/13 01:39:25;;;;;;;95.43;23.50;;;8.80;97.10;;;;;;5033635;28;20209;-92
2021/12/13 01:41:58;;;;;;;99.17;24.33;;;8.80;97.20;;;;;;5033230;28;20169;-93
2021/12/13 01:44:29;;;;;;;89.83;23.60;;;8.80;97.20;;;;;;5031070;28;20208;-92
2021/12/13 01:47:02;;;;;;;100.83;24.10;;;8.80;97.20;;;;;;5033985;28;20217;-92
2021/12/13 01:49:35;;;;;;;98.80;23.60;;;8.80;97.20;;;;;;5029301;28;20185;-93
2021/12/13 01:52:04;;;;;;;101.67;24.03;;;8.80;97.10;;;;;;5036449;28;20568;-91
2021/12/13 01:54:29;;;;;;;103.10;24.63;;;8.90;97.20;;;;;;5034710;28;20185;-91
2021/12/13 01:59:51;;;;;;;97.10;22.57;;;8.90;97.10;;;;;;5040920;28;20158;-91
2021/12/13 02:02:28;;;;;;;95.97;22.30;;;9.00;97.20;;;;;;5040495;28;20157;-92
2021/12/13 02:04:59;;;;;;;99.47;23.40;;;9.00;97.10;;;;;;5039872;28;20193;-91
2021/12/13 02:07:33;;;;;;;84.37;22.00;;;9.00;97.10;;;;;;5039338;28;20232;-90
2021/12/13 02:10:00;;;;;;;87.10;21.70;;;8.90;97.20;;;;;;5040317;28;20199;-89
2021/12/13 02:12:29;;;;;;;98.43;22.20;;;9.00;97.20;;;;;;5040482;28;20188;-90
2021/12/13 02:17:44;;;;;;;94.87;23.40;;;9.00;97.20;;;;;;5040886;28;20181;-90
2021/12/13 02:20:15;;;;;;;100.63;23.40;;;9.10;97.10;;;;;;5040140;28;20170;-90
2021/12/13 02:22:48;;;;;;;115.40;25.87;;;9.00;97.10;;;;;;5040320;28;20173;-89
2021/12/13 02:25:16;;;;;;;126.70;26.37;;;9.00;97.10;;;;;;5040172;28;20189;-89
2021/12/13 02:27:58;;;;;;;146.23;27.57;;;9.00;97.10;;;;;;5040175;28;20229;-90
2021/12/13 02:30:44;;;;;;;147.47;28.50;;;9.10;97.10;;;;;;5040066;28;20205;-89
2021/12/13 02:33:19;;;;;;;145.03;28.07;;;9.10;97.10;;;;;;5040630;28;20149;-88
2021/12/13 02:35:54;;;;;;;124.67;25.90;;;9.00;97.10;;;;;;5040061;28;20157;-89
2021/12/13 02:38:22;;;;;;;170.37;30.30;;;9.10;97.20;;;;;;5039987;28;20181;-88
2021/12/13 02:40:49;;;;;;;137.37;29.07;;;9.10;97.20;;;;;;5039869;28;20203;-89
2021/12/13 02:43:19;;;;;;;148.07;30.37;;;9.00;97.10;;;;;;5039940;28;20157;-90
2021/12/13 02:45:49;;;;;;;138.63;29.80;;;9.10;97.20;;;;;;5039774;28;20193;-89
2021/12/13 02:48:38;;;;;;;141.23;29.67;;;9.10;97.20;;;;;;5039418;28;20161;-91
2021/12/13 02:51:30;;;;;;;128.77;28.60;;;9.10;97.10;;;;;;5039689;28;20181;-91
2021/12/13 02:53:58;;;;;;;135.60;27.93;;;9.10;97.20;;;;;;5039667;28;20173;-90
2021/12/13 02:56:29;;;;;;;131.90;28.30;;;9.10;97.10;;;;;;5039632;28;20162;-92
2021/12/13 02:58:57;;;;;;;136.50;28.97;;;9.10;97.10;;;;;;5039657;28;20161;-90
2021/12/13 03:01:33;;;;;;;116.73;27.13;;;9.10;97.20;;;;;;5039437;28;20174;-89
2021/12/13 03:04:04;;;;;;;135.70;27.90;;;9.10;97.10;;;;;;5039580;28;20157;-91
2021/12/13 03:06:38;;;;;;;141.23;29.40;;;9.10;97.10;;;;;;5039396;28;20189;-90
2021/12/13 03:09:12;;;;;;;113.40;26.63;;;9.10;97.10;;;;;;5039508;28;20223;-90
2021/12/13 03:11:38;;;;;;;118.10;25.07;;;9.10;97.10;;;;;;5039286;28;20237;-89
2021/12/13 03:14:12;;;;;;;142.50;27.30;;;9.10;97.10;;;;;;5039357;28;20157;-89
2021/12/13 03:16:45;;;;;;;125.07;29.53;;;9.10;97.20;;;;;;5039336;28;20232;-90
2021/12/13 03:19:30;;;;;;;129.10;29.30;;;9.10;97.10;;;;;;5039255;28;20219;-91
2021/12/13 03:22:12;;;;;;;128.30;28.67;;;9.10;97.20;;;;;;5039246;28;20182;-90
2021/12/13 03:25:06;;;;;;;121.57;28.40;;;9.10;97.10;;;;;;5039166;28;20161;-88
2021/12/13 03:28:11;;;;;;;110.00;24.00;;;9.10;97.20;;;;;;5039075;28;20220;-90
2021/12/13 03:30:58;;;;;;;124.40;27.23;;;9.20;97.10;;;;;;5039027;28;20245;-89
2021/12/13 03:33:37;;;;;;;115.23;25.60;;;9.10;97.20;;;;;;5038974;28;20185;-90
2021/12/13 03:36:10;;;;;;;109.10;25.00;;;9.20;97.20;;;;;;5039050;28;20233;-90
2021/12/13 03:38:46;;;;;;;109.43;24.83;;;9.20;97.20;;;;;;5038998;28;20181;-90
2021/12/13 03:41:16;;;;;;;123.13;27.63;;;9.20;97.10;;;;;;5038813;28;20220;-89
2021/12/13 03:43:59;;;;;;;124.73;27.10;;;9.20;97.20;;;;;;5038954;28;20173;-89
2021/12/13 03:46:29;;;;;;;123.80;27.20;;;9.20;97.10;;;;;;5038841;28;20216;-90
2021/12/13 03:48:56;;;;;;;127.37;28.50;;;9.20;97.20;;;;;;5039363;28;20146;-89
2021/12/13 03:51:27;;;;;;;119.83;27.73;;;9.20;97.10;;;;;;5038743;28;20245;-90
2021/12/13 03:53:55;;;;;;;126.03;27.83;;;9.30;97.10;;;;;;5038762;28;20158;-90
2021/12/13 03:56:28;;;;;;;118.57;27.43;;;9.30;97.10;;;;;;5038770;28;20154;-91
2021/12/13 03:58:58;;;;;;;114.07;26.80;;;9.20;97.10;;;;;;5038742;28;20174;-92
2021/12/13 04:01:40;;;;;;;109.33;26.87;;;9.20;97.10;;;;;;5037968;28;20257;-89
2021/12/13 04:04:11;;;;;;;115.83;27.83;;;9.30;97.20;;;;;;5038682;28;20184;-89
2021/12/13 04:06:55;;;;;;;114.20;27.43;;;9.30;97.10;;;;;;5038594;28;20224;-90
2021/12/13 04:09:24;;;;;;;115.33;26.40;;;9.30;97.10;;;;;;5038598;28;20189;-90
2021/12/13 04:11:55;;;;;;;118.37;27.67;;;9.30;97.10;;;;;;5038470;28;20196;-91
2021/12/13 04:14:28;;;;;;;119.47;26.27;;;9.30;97.10;;;;;;5038601;28;20168;-89
2021/12/13 04:17:19;;;;;;;114.87;26.13;;;9.30;97.10;;;;;;5038635;28;20229;-91
2021/12/13 04:19:58;;;;;;;118.87;25.47;;;9.30;97.10;;;;;;5038484;28;20173;-91
2021/12/13 04:22:33;;;;;;;113.20;26.07;;;9.30;97.10;;;;;;5038589;28;20229;-90
2021/12/13 04:25:05;;;;;;;109.13;24.60;;;9.30;97.10;;;;;;5038458;28;20176;-89
2021/12/13 04:27:36;;;;;;;102.03;22.87;;;9.30;97.10;;;;;;5038053;28;20161;-90
2021/12/13 04:30:15;;;;;;;101.30;23.07;;;9.30;97.10;;;;;;5038387;28;20201;-90
2021/12/13 04:32:45;;;;;;;86.90;21.73;;;9.30;97.10;;;;;;5038462;28;20157;-91
2021/12/13 04:35:12;;;;;;;99.60;22.97;;;9.40;97.10;;;;;;5038400;28;20154;-91
2021/12/13 04:37:43;;;;;;;96.93;22.53;;;9.40;97.20;;;;;;5038378;28;20162;-90
2021/12/13 04:40:20;;;;;;;89.73;21.23;;;9.40;97.10;;;;;;5038309;28;20208;-89
2021/12/13 04:42:53;;;;;;;90.57;22.90;;;9.50;97.20;;;;;;5038361;28;20154;-90
2021/12/13 04:45:23;;;;;;;90.57;22.30;;;9.40;97.10;;;;;;5038220;28;20212;-90
2021/12/13 04:48:10;;;;;;;98.63;22.73;;;9.40;97.10;;;;;;5038813;28;20142;-89
2021/12/13 04:50:48;;;;;;;93.30;24.07;;;9.50;97.10;;;;;;5038206;28;20192;-90
2021/12/13 04:53:21;;;;;;;94.77;22.83;;;9.50;97.10;;;;;;5038271;28;20150;-89
2021/12/13 04:55:48;;;;;;;97.73;23.50;;;9.50;97.10;;;;;;5038273;28;20176;-89
2021/12/13 04:58:16;;;;;;;97.43;23.67;;;9.40;97.10;;;;;;5038161;28;20169;-90
2021/12/13 05:00:45;;;;;;;99.53;22.97;;;9.50;97.10;;;;;;5038077;28;20202;-90
2021/12/13 05:03:14;;;;;;;93.30;22.33;;;9.50;97.10;;;;;;5038181;28;20217;-90
2021/12/13 05:05:40;;;;;;;102.57;24.27;;;9.50;97.10;;;;;;5038049;28;20188;-89
2021/12/13 05:08:10;;;;;;;107.10;24.80;;;9.40;97.10;;;;;;5038131;28;20153;-91
2021/12/13 05:10:36;;;;;;;100.93;25.20;;;9.50;97.10;;;;;;5037913;28;20228;-90
2021/12/13 05:13:15;;;;;;;94.63;24.10;;;9.50;97.10;;;;;;5041046;28;20157;-90
2021/12/13 05:15:49;;;;;;;105.10;25.40;;;9.50;97.10;;;;;;5041585;28;20149;-89
2021/12/13 05:18:20;;;;;;;105.20;24.83;;;9.50;97.10;;;;;;5041567;28;20180;-89
2021/12/13 05:20:45;;;;;;;103.87;25.23;;;9.50;97.10;;;;;;5041453;28;20182;-88
2021/12/13 05:23:19;;;;;;;104.73;24.87;;;9.50;97.10;;;;;;5041431;28;20168;-90
2021/12/13 05:25:54;;;;;;;105.37;24.40;;;9.40;97.10;;;;;;5041333;28;20221;-89
2021/12/13 05:28:45;;;;;;;109.13;25.53;;;9.50;97.10;;;;;;5041320;28;20162;-90
2021/12/13 05:31:25;;;;;;;102.33;24.57;;;9.40;97.10;;;;;;5040977;28;20208;-90
2021/12/13 05:34:10;;;;;;;99.23;23.10;;;9.50;97.10;;;;;;5041292;28;20153;-91
2021/12/13 05:36:37;;;;;;;102.60;23.40;;;9.50;97.10;;;;;;5040909;28;20182;-90
2021/12/13 05:39:05;;;;;;;96.07;23.70;;;9.50;97.10;;;;;;5041064;28;20161;-89
2021/12/13 05:41:31;;;;;;;90.10;22.23;;;9.50;97.10;;;;;;5041008;28;20186;-90
2021/12/13 05:44:00;;;;;;;111.47;25.00;;;9.50;97.10;;;;;;5041519;28;20177;-89
2021/12/13 05:46:37;;;;;;;100.87;24.00;;;9.50;97.10;;;;;;5040885;28;20221;-90
2021/12/13 05:49:07;;;;;;;105.10;24.13;;;9.50;97.10;;;;;;5041010;28;20177;-89
2021/12/13 05:51:39;;;;;;;102.57;23.27;;;9.50;97.10;;;;;;5040870;28;20193;-90
2021/12/13 05:54:13;;;;;;;93.83;22.43;;;9.50;97.10;;;;;;5040912;28;20157;-92
2021/12/13 05:57:05;;;;;;;97.10;23.87;;;9.50;97.10;;;;;;5040868;28;20150;-90
2021/12/13 05:59:35;;;;;;;93.33;22.23;;;9.50;97.10;;;;;;5038244;28;20240;-89
2021/12/13 06:02:07;;;;;;;83.70;22.33;;;9.60;97.10;;;;;;5040672;28;20233;-90
2021/12/13 06:04:42;;;;;;;102.53;25.13;;;9.60;97.10;;;;;;5040624;28;20161;-90
2021/12/13 06:07:15;;;;;;;98.60;22.67;;;9.60;97.10;;;;;;5040552;28;20177;-90
2021/12/13 06:09:47;;;;;;;95.80;23.17;;;9.60;97.10;;;;;;5040446;28;20180;-89
2021/12/13 06:12:23;;;;;;;105.20;24.20;;;9.60;97.10;;;;;;5040535;28;20192;-90
2021/12/13 06:14:48;;;;;;;91.13;22.60;;;9.60;97.10;;;;;;5040481;28;20212;-92
2021/12/13 06:17:27;;;;;;;96.57;24.30;;;9.60;97.10;;;;;;5040428;28;20158;-90
2021/12/13 06:20:00;;;;;;;89.53;20.90;;;9.60;97.10;;;;;;5040324;28;20180;-91
2021/12/13 06:22:29;;;;;;;102.00;23.57;;;9.60;97.10;;;;;;5040300;28;20191;-90
2021/12/13 06:24:59;;;;;;;101.03;22.53;;;9.60;97.10;;;;;;5039596;28;20208;-91
2021/12/13 06:27:39;;;;;;;89.23;21.07;;;9.60;97.10;;;;;;5040152;28;20168;-90
2021/12/13 06:30:17;;;;;;;71.33;19.03;;;9.50;97.10;;;;;;5040121;28;20184;-92
2021/12/13 06:33:05;;;;;;;69.10;18.40;;;9.50;97.10;;;;;;5040162;28;20160;-91
2021/12/13 06:35:45;;;;;;;76.50;19.53;;;9.60;97.10;;;;;;5040072;28;20157;-91
2021/12/13 06:38:20;;;;;;;68.63;18.43;;;9.60;97.10;;;;;;5040032;28;20160;-93
2021/12/13 06:40:54;;;;;;;74.40;17.67;;;9.60;97.10;;;;;;5039902;28;20189;-93
2021/12/13 06:43:34;;;;;;;73.90;19.70;;;9.50;97.10;;;;;;5039864;28;20161;-94
2021/12/13 06:46:04;;;;;;;75.27;20.37;;;9.60;97.10;;;;;;5039827;28;20185;-93
2021/12/13 06:48:43;;;;;;;74.23;20.47;;;9.60;97.10;;;;;;5039876;28;20221;-92
2021/12/13 06:51:12;;;;;;;70.57;19.57;;;9.60;97.10;;;;;;5039684;28;20208;-92
2021/12/13 06:53:40;;;;;;;68.37;19.43;;;9.70;97.10;;;;;;5039754;28;20173;-92
2021/12/13 06:56:25;;;;;;;67.60;19.33;;;9.60;97.10;;;;;;5039604;28;20177;-91
2021/12/13 06:58:54;;;;;;;75.70;21.97;;;9.60;97.10;;;;;;5039662;28;20177;-92
2021/12/13 07:01:21;;;;;;;75.30;21.23;;;9.60;97.10;;;;;;5039574;28;20249;-91
2021/12/13 07:04:04;;;;;;;72.00;21.93;;;9.50;97.10;;;;;;5039568;28;20159;-90
2021/12/13 07:06:30;;;;;;;74.43;22.10;;;9.50;97.10;;;;;;5039469;28;20276;-91
2021/12/13 07:09:15;;;;;;;74.33;24.17;;;9.60;97.10;;;;;;5039519;28;20180;-89
2021/12/13 07:11:55;;;;;;;73.70;22.03;;;9.50;97.10;;;;;;5039296;28;20199;-92
2021/12/13 07:14:39;;;;;;;74.07;22.20;;;9.50;97.00;;;;;;5039376;28;20158;-90
2021/12/13 07:17:17;;;;;;;78.53;24.10;;;9.60;97.10;;;;;;5039406;28;20215;-90
2021/12/13 07:19:48;;;;;;;69.07;21.77;;;9.50;97.10;;;;;;5039219;28;20229;-95
2021/12/13 07:22:21;;;;;;;78.43;23.80;;;9.60;97.10;;;;;;5039238;28;20208;-95
2021/12/13 07:24:51;;;;;;;72.53;23.90;;;9.50;97.10;;;;;;5039061;28;20188;-95
2021/12/13 07:27:29;;;;;;;72.73;23.53;;;9.50;97.10;;;;;;5039204;28;20177;-95
2021/12/13 07:29:58;;;;;;;71.17;24.13;;;9.60;97.10;;;;;;5038966;28;20182;-96
2021/12/13 07:32:28;;;;;;;72.43;23.07;;;9.50;97.10;;;;;;5039064;28;20154;-96
2021/12/13 07:35:11;;;;;;;73.70;24.30;;;9.50;97.00;;;;;;5038999;28;20169;-96
2021/12/13 07:37:52;;;;;;;73.27;23.40;;;9.50;97.10;;;;;;5039089;28;20184;-95
2021/12/13 07:40:27;;;;;;;73.23;23.57;;;9.50;97.10;;;;;;5038887;28;20192;-95
2021/12/13 07:43:01;;;;;;;75.30;24.83;;;9.50;97.10;;;;;;5038970;28;20173;-94
2021/12/13 07:45:38;;;;;;;72.87;24.57;;;9.50;97.10;;;;;;5038699;28;20200;-95
2021/12/13 07:48:08;;;;;;;68.57;25.33;;;9.50;97.00;;;;;;5038891;28;20161;-95
2021/12/13 07:50:35;;;;;;;75.67;25.07;;;9.30;97.00;;;;;;5038794;28;20183;-95
2021/12/13 07:53:06;;;;;;;77.83;26.97;;;9.30;97.00;;;;;;5038741;28;20165;-93
2021/12/13 07:55:32;;;;;;;82.07;26.87;;;9.30;97.00;;;;;;5038747;28;20177;-94
2021/12/13 07:58:02;;;;;;;86.17;27.87;;;9.30;97.00;;;;;;5038637;28;20197;-93
2021/12/13 08:00:37;;;;;;;77.70;27.47;;;9.30;97.00;;;;;;5038491;28;20200;-94
2021/12/13 08:03:15;;;;;;;83.30;27.53;;;9.40;97.00;;;;;;5038622;28;20185;-93
2021/12/13 08:05:52;;;;;;;74.90;26.30;;;9.30;97.00;;;;;;5038378;28;20200;-94
2021/12/13 08:08:25;;;;;;;70.43;25.63;;;9.40;97.00;;;;;;5038256;28;20164;-93
2021/12/13 08:10:56;;;;;;;81.13;28.57;;;9.50;97.00;;;;;;5038129;28;20221;-95
2021/12/13 08:13:26;;;;;;;81.73;29.43;;;9.50;97.00;;;;;;5038283;28;20173;-93
2021/12/13 08:16:00;;;;;;;77.27;29.43;;;9.60;97.00;;;;;;5038264;28;20174;-93
2021/12/13 08:18:40;;;;;;;87.33;31.60;;;9.60;97.00;;;;;;5038268;28;20173;-93
2021/12/13 08:21:20;;;;;;;86.77;31.33;;;9.50;97.00;;;;;;5037695;28;20201;-94
2021/12/13 08:23:56;;;;;;;90.07;32.33;;;9.60;97.00;;;;;;5037424;28;20175;-93
2021/12/13 08:26:38;;;;;;;90.40;31.93;;;9.50;97.00;;;;;;5037660;28;20284;-92
2021/12/13 08:29:15;;;;;;;78.03;25.43;;;9.50;97.00;;;;;;5037658;28;20224;-94
2021/12/13 08:31:41;;;;;;;93.73;32.97;;;9.50;97.00;;;;;;5036159;28;20184;-92
2021/12/13 08:34:14;;;;;;;96.00;33.03;;;9.60;96.90;;;;;;5035538;28;20178;-92
2021/12/13 08:36:41;;;;;;;99.57;33.20;;;9.60;96.90;;;;;;5037290;28;20167;-94
2021/12/13 08:39:12;;;;;;;100.50;33.03;;;9.60;96.90;;;;;;5037294;28;20192;-93
2021/12/13 08:41:44;;;;;;;91.23;31.33;;;9.60;96.90;;;;;;5037301;28;20229;-93
2021/12/13 08:44:12;;;;;;;90.57;30.57;;;9.60;96.80;;;;;;5037450;28;20193;-93
2021/12/13 08:46:56;;;;;;;85.77;30.60;;;9.70;96.80;;;;;;5038222;28;20231;-95
2021/12/13 08:49:31;;;;;;;86.67;31.60;;;9.70;96.70;;;;;;5032705;28;20170;-92
2021/12/13 08:52:03;;;;;;;77.07;28.97;;;9.80;96.70;;;;;;5032306;28;20180;-92
2021/12/13 08:54:58;;;;;;;75.10;28.10;;;9.80;96.60;;;;;;5041714;28;20169;-93
2021/12/13 08:57:50;;;;;;;78.07;29.63;;;9.70;96.60;;;;;;5032636;28;20191;-93
2021/12/13 09:00:19;;;;;;;72.33;28.37;;;9.70;96.50;;;;;;5041301;28;20193;-93
2021/12/13 09:02:55;;;;;;;55.50;20.50;;;9.70;96.40;;;;;;5041601;28;20165;-94
2021/12/13 09:05:52;;;;;;;70.77;28.27;;;9.70;96.40;;;;;;5041398;28;20204;-95
2021/12/13 09:08:22;;;;;;;60.00;24.37;;;9.70;96.30;;;;;;5106507;23;20220;-92
2021/12/13 09:11:13;;;;;;;68.57;28.90;;;9.70;96.30;;;;;;5060725;28;20204;-94
2021/12/13 09:13:44;;;;;;;74.33;28.30;;;9.70;96.30;;;;;;5061437;28;20192;-96
2021/12/13 09:16:12;;;;;;;68.00;27.83;;;9.70;96.20;;;;;;5061299;28;20169;-94
2021/12/13 09:18:38;;;;;;;78.03;30.50;;;9.80;96.20;;;;;;5060812;28;20181;-96
2021/12/13 09:21:06;;;;;;;76.90;29.43;;;9.80;96.20;;;;;;5060537;28;20238;-94
2021/12/13 09:23:51;;;;;;;71.93;29.10;;;9.70;96.10;;;;;;5060795;28;20157;-94
2021/12/13 09:26:22;;;;;;;66.63;28.10;;;9.70;96.10;;;;;;5060925;28;20215;-93
2021/12/13 09:28:50;;;;;;;77.23;28.37;;;9.70;96.10;;;;;;5059979;28;20152;-94
2021/12/13 09:31:26;;;;;;;65.63;27.20;;;9.80;96.10;;;;;;5058716;28;20199;-93
2021/12/13 09:34:11;;;;;;;65.07;26.47;;;9.70;96.00;;;;;;5061020;28;20152;-96
2021/12/13 09:36:40;;;;;;;61.57;26.30;;;9.80;96.00;;;;;;5060994;28;20169;-95
2021/12/13 09:39:27;;;;;;;68.10;27.50;;;9.80;95.90;;;;;;5061038;28;20183;-95
2021/12/13 09:42:03;;;;;;;63.67;27.83;;;9.80;95.90;;;;;;5061010;28;20172;-95
2021/12/13 09:47:14;;;;;;;62.73;26.33;;;9.70;95.80;;;;;;5090498;22;20228;-94
2021/12/13 09:49:42;;;;;;;61.60;26.47;;;9.70;95.80;;;;;;5047303;28;20181;-90
2021/12/13 09:52:13;;;;;;;62.13;27.80;;;9.80;95.70;;;;;;5037439;28;20231;-91
2021/12/13 09:54:52;;;;;;;63.67;27.03;;;9.80;95.70;;;;;;5037218;28;20201;-90
2021/12/13 09:57:23;;;;;;;62.13;25.67;;;9.90;95.70;;;;;;5041554;28;20625;-92
2021/12/13 09:59:53;;;;;;;50.13;24.67;;;9.90;95.60;;;;;;5044938;28;20194;-91
2021/12/13 10:02:30;;;;;;;47.47;21.87;;;9.80;95.40;;;;;;5056388;28;20172;-92
2021/12/13 10:04:56;;;;;;;53.40;22.77;;;9.80;95.40;;;;;;5053953;28;20179;-91
2021/12/13 10:07:33;;;;;;;47.67;22.37;;;9.80;95.30;;;;;;5058977;28;20181;-90
2021/12/13 10:10:08;;;;;;;49.10;21.73;;;9.90;95.30;;;;;;5060445;28;20256;-89
2021/12/13 10:12:59;;;;;;;41.13;20.53;;;10.00;95.20;;;;;;5060429;28;20160;-89
2021/12/13 10:15:36;;;;;;;38.33;19.67;;;10.00;95.20;;;;;;5060328;28;20182;-90
2021/12/13 10:18:10;;;;;;;35.13;17.07;;;10.10;95.00;;;;;;5060342;28;20162;-88
2021/12/13 10:20:43;;;;;;;29.97;17.27;;;10.20;94.70;;;;;;5059948;28;20203;-88
2021/12/13 10:23:14;;;;;;;25.93;14.37;;;10.20;94.30;;;;;;5059952;28;20180;-91
2021/12/13 10:25:44;;;;;;;26.10;14.37;;;10.20;94.10;;;;;;5060084;28;20288;-88
2021/12/13 10:28:15;;;;;;;23.20;13.13;;;10.20;93.90;;;;;;5060066;28;20155;-90
2021/12/13 10:30:52;;;;;;;21.40;11.20;;;10.10;93.60;;;;;;5056966;28;20184;-91
2021/12/13 10:33:21;;;;;;;21.03;11.73;;;10.20;93.30;;;;;;5060094;28;20157;-89
2021/12/13 10:35:49;;;;;;;21.83;11.50;;;10.10;93.20;;;;;;5043677;28;20176;-93
2021/12/13 10:38:28;;;;;;;16.07;10.03;;;10.00;93.20;;;;;;5040051;28;20204;-93
2021/12/13 10:41:03;;;;;;;15.23;10.93;;;10.00;93.20;;;;;;5041039;28;20220;-92
2021/12/13 10:43:32;;;;;;;16.00;11.03;;;10.00;93.20;;;;;;5041648;28;20707;-93
2021/12/13 10:46:18;;;;;;;18.23;10.93;;;9.90;93.20;;;;;;5042332;28;20403;-93
2021/12/13 10:48:48;;;;;;;18.80;10.70;;;9.90;93.40;;;;;;5041334;28;20179;-93
2021/12/13 10:51:25;;;;;;;21.33;11.27;;;10.00;93.40;;;;;;5040872;28;20198;-94
2021/12/13 10:53:54;;;;;;;17.50;10.83;;;9.90;93.30;;;;;;5040490;28;20256;-92
2021/12/13 10:56:26;;;;;;;17.40;11.00;;;9.90;93.30;;;;;;5040458;28;20222;-93
2021/12/13 10:58:56;;;;;;;15.70;11.23;;;9.80;93.40;;;;;;5040030;28;20187;-93
2021/12/13 11:01:33;;;;;;;15.93;10.57;;;9.80;93.60;;;;;;5040503;28;20197;-93
2021/12/13 11:04:04;;;;;;;16.97;11.03;;;9.80;93.60;;;;;;5039700;28;20266;-93
2021/12/13 11:06:30;;;;;;;18.20;11.70;;;9.80;93.60;;;;;;5045721;28;20191;-93
2021/12/13 11:08:56;;;;;;;17.93;11.40;;;9.90;93.50;;;;;;5040641;28;20184;-92
2021/12/13 11:11:33;;;;;;;19.43;12.80;;;9.80;93.60;;;;;;5039870;28;20192;-92
2021/12/13 11:14:05;;;;;;;18.13;10.67;;;9.80;93.70;;;;;;5040202;28;20164;-92
2021/12/13 11:16:38;;;;;;;19.63;12.30;;;9.80;93.80;;;;;;5040489;28;20168;-92
2021/12/13 11:19:06;;;;;;;20.27;12.10;;;9.70;93.90;;;;;;5039219;28;20169;-92
2021/12/13 11:21:36;;;;;;;17.50;12.43;;;9.70;93.80;;;;;;5039249;28;20196;-92
2021/12/13 11:24:05;;;;;;;19.40;13.30;;;9.70;93.80;;;;;;5038927;28;20173;-92
2021/12/13 11:26:39;;;;;;;15.47;12.47;;;9.70;93.80;;;;;;5039042;28;20208;-92
2021/12/13 11:29:07;;;;;;;18.37;12.63;;;9.80;93.50;;;;;;5040497;28;20169;-92
2021/12/13 11:31:33;;;;;;;19.50;12.67;;;9.80;93.50;;;;;;5040920;28;20193;-92
2021/12/13 11:33:59;;;;;;;18.07;12.40;;;9.70;93.50;;;;;;5039900;28;20204;-92
2021/12/13 11:36:50;;;;;;;20.13;13.03;;;9.70;93.50;;;;;;5038827;28;20172;-92
2021/12/13 11:39:29;;;;;;;18.70;12.83;;;9.80;93.40;;;;;;5041275;28;20264;-92
2021/12/13 11:42:26;;;;;;;19.93;13.90;;;9.80;93.50;;;;;;5041892;28;20172;-92
2021/12/13 11:45:12;;;;;;;23.03;13.57;;;9.80;93.40;;;;;;5041477;28;20218;-92
2021/12/13 11:47:44;;;;;;;21.93;14.60;;;9.80;93.50;;;;;;5040878;28;20208;-93
2021/12/13 11:50:29;;;;;;;25.77;14.50;;;9.80;93.30;;;;;;5042204;28;20195;-93
2021/12/13 11:53:30;;;;;;;20.87;13.40;;;9.80;93.30;;;;;;5041127;28;20172;-92
2021/12/13 11:56:17;;;;;;;21.00;13.90;;;9.90;93.30;;;;;;5041207;28;20180;-92
2021/12/13 11:59:14;;;;;;;21.67;14.50;;;9.80;93.10;;;;;;5040817;28;20172;-92
2021/12/13 12:02:12;;;;;;;21.20;14.50;;;9.80;93.10;;;;;;5041054;28;20251;-92
2021/12/13 12:05:11;;;;;;;21.27;14.00;;;9.90;92.90;;;;;;5023275;28;20194;-92
2021/12/13 12:07:55;;;;;;;22.17;13.93;;;9.80;93.00;;;;;;5039098;28;20227;-91
2021/12/13 12:10:39;;;;;;;21.77;14.80;;;9.80;92.90;;;;;;5039186;28;20196;-93
2021/12/13 12:13:36;;;;;;;22.27;16.30;;;9.80;92.80;;;;;;5038951;28;20173;-93
2021/12/13 12:16:03;;;;;;;18.13;13.40;;;9.80;92.80;;;;;;5039507;28;20176;-93
2021/12/13 12:18:35;;;;;;;19.97;15.50;;;9.80;93.00;;;;;;5039894;28;20176;-93
2021/12/13 12:21:26;;;;;;;22.47;15.80;;;9.80;93.00;;;;;;5040163;28;20193;-93
2021/12/13 12:23:52;;;;;;;20.97;14.17;;;9.80;92.90;;;;;;5043661;28;20659;-92
2021/12/13 12:26:19;;;;;;;24.30;14.90;;;9.80;93.00;;;;;;5042201;28;20204;-92
2021/12/13 12:28:46;;;;;;;22.10;16.57;;;9.80;92.90;;;;;;5041711;28;20172;-92
2021/12/13 12:31:12;;;;;;;26.80;15.60;;;9.80;92.70;;;;;;5041146;28;20572;-92
2021/12/13 12:33:40;;;;;;;24.10;15.63;;;9.70;92.90;;;;;;5042099;28;20185;-92
2021/12/13 12:36:20;;;;;;;19.83;14.90;;;9.80;92.80;;;;;;5042027;28;20251;-92
2021/12/13 12:39:03;;;;;;;24.60;17.57;;;9.80;92.80;;;;;;5041375;28;20180;-93
2021/12/13 12:41:40;;;;;;;25.17;17.17;;;9.70;92.80;;;;;;5037222;28;20204;-93
2021/12/13 12:44:06;;;;;;;23.10;16.60;;;9.70;92.80;;;;;;5036177;28;20207;-92
2021/12/13 12:46:40;;;;;;;23.80;15.83;;;9.70;92.70;;;;;;5035866;28;20247;-91
2021/12/13 12:49:13;;;;;;;26.27;17.23;;;9.70;92.60;;;;;;5036306;28;20208;-92
2021/12/13 12:51:39;;;;;;;33.53;18.80;;;9.70;92.60;;;;;;5035946;28;20228;-92
2021/12/13 12:54:12;;;;;;;29.10;17.80;;;9.80;92.50;;;;;;5036023;28;20582;-92
2021/12/13 12:56:42;;;;;;;31.13;19.03;;;9.70;92.30;;;;;;5035860;28;20184;-91
2021/12/13 12:59:13;;;;;;;24.60;17.37;;;9.70;92.40;;;;;;5036009;28;20203;-92
2021/12/13 13:01:46;;;;;;;25.53;17.77;;;9.70;92.30;;;;;;5035775;28;20200;-92
2021/12/13 13:04:14;;;;;;;26.17;17.57;;;9.70;92.30;;;;;;5035755;28;20753;-91
2021/12/13 13:07:06;;;;;;;29.40;18.40;;;9.70;92.30;;;;;;5035379;28;20204;-92
2021/12/13 13:09:36;;;;;;;24.70;17.67;;;9.80;92.20;;;;;;5035721;28;20181;-91
2021/12/13 13:12:02;;;;;;;25.83;17.93;;;9.80;92.30;;;;;;5035456;28;20231;-92
2021/12/13 13:14:30;;;;;;;24.03;17.33;;;9.70;92.20;;;;;;5036785;28;20211;-91
2021/12/13 13:17:07;;;;;;;24.90;17.30;;;9.70;92.20;;;;;;5035539;28;20184;-91
2021/12/13 13:19:38;;;;;;;21.97;17.70;;;9.70;92.10;;;;;;5036004;28;20169;-92
2021/12/13 13:22:14;;;;;;;23.97;16.27;;;9.70;92.20;;;;;;5035461;28;20256;-92
2021/12/13 13:24:44;;;;;;;26.10;16.80;;;9.70;92.00;;;;;;5035676;28;20168;-92
2021/12/13 13:27:11;;;;;;;27.07;18.27;;;9.70;92.00;;;;;;5035286;28;20295;-93